Big Bear Station Historical Data
Daily Summary for January 5, 2017 Units:  English    Metric   Both
« Previous Day
Next Day »
Daily Weekly Monthly Yearly Custom
  High: Low: Average:
Temperature: 43.0 °F 34.0 °F 38 °F
Dew Point: 40.0 °F 31.9 °F 36.3 °F
Humidity: 98 % 88 % 94 %
Wind Speed: 7.8 mph 0.0 mph 3.3 mph
Wind Gust: -999.0 mph - -
Wind:- - SW
Pressure: 23.42 in 23.32 in -
Precipitation: 0.39 in    
Historical Graphs
 
 
Tabular Data for January 5, 2017
Time Temperature Dew Point Pressure Wind Wind Speed Wind Gust Humidity Rainfall Rate (Hourly)
00:09 36.5 °F 35.7 °F 23.42 in NW 3.7 mph -999.0 mph 97 % 0 in
00:24 36.7 °F 35.4 °F 23.42 in West 3.2 mph -999.0 mph 95 % 0 in
00:40 37.2 °F 35.9 °F 23.42 in North 2.2 mph -999.0 mph 95 % 0 in
00:55 37.2 °F 35.9 °F 23.42 in SSW 3.7 mph -999.0 mph 95 % 0 in
01:11 37.2 °F 36.2 °F 23.42 in ESE 3.7 mph -999.0 mph 96 % 0 in
01:26 37.4 °F 36.4 °F 23.42 in WSW 2.7 mph -999.0 mph 96 % 0 in
01:41 37.6 °F 36.6 °F 23.42 in SSW 4.2 mph -999.0 mph 96 % 0 in
01:56 37.2 °F 36.2 °F 23.42 in North 4.7 mph -999.0 mph 96 % 0 in
02:11 37.2 °F 36.2 °F 23.42 in NNW 4.2 mph -999.0 mph 96 % 0 in
02:27 37.2 °F 36.2 °F 23.42 in WNW 3.2 mph -999.0 mph 96 % 0 in
02:42 37.8 °F 36.8 °F 23.41 in South 4.7 mph -999.0 mph 96 % 0 in
02:57 38.3 °F 36.7 °F 23.41 in NNW 4.7 mph -999.0 mph 94 % 0 in
03:12 38.1 °F 36.3 °F 23.42 in SE 1.1 mph -999.0 mph 93 % 0 in
03:28 38.3 °F 36.5 °F 23.41 in NNW 3.7 mph -999.0 mph 93 % 0 in
03:44 38.1 °F 36.5 °F 23.40 in NNW 3.2 mph -999.0 mph 94 % 0 in
03:59 38.3 °F 37.3 °F 23.40 in NW 3.7 mph -999.0 mph 96 % 0 in
04:14 38.1 °F 37.1 °F 23.39 in WNW 3.7 mph -999.0 mph 96 % 0 in
04:29 37.6 °F 36.8 °F 23.40 in NW 3.7 mph -999.0 mph 97 % 0 in
04:44 37.4 °F 36.9 °F 23.39 in West 3.2 mph -999.0 mph 98 % 0 in
05:00 37.8 °F 37.3 °F 23.39 in NNW 3.7 mph -999.0 mph 98 % 0 in
05:15 37.9 °F 37.4 °F 23.39 in WNW 4.7 mph -999.0 mph 98 % 0 in
05:30 37.8 °F 37.0 °F 23.38 in NW 5.8 mph -999.0 mph 97 % 0 in
05:46 37.8 °F 36.8 °F 23.38 in NW 3.7 mph -999.0 mph 96 % 0 in
06:01 37.9 °F 36.9 °F 23.39 in SSE 2.7 mph -999.0 mph 96 % 0 in
06:16 38.1 °F 36.8 °F 23.40 in South 2.2 mph -999.0 mph 95 % 0 in
06:32 38.7 °F 37.1 °F 23.39 in NW 2.7 mph -999.0 mph 94 % 0 in
06:47 38.7 °F 37.4 °F 23.40 in ESE 2.7 mph -999.0 mph 95 % 0 in
07:02 38.8 °F 37.5 °F 23.39 in West 1.7 mph -999.0 mph 95 % 0 in
07:17 39.0 °F 37.7 °F 23.39 in NNE 3.7 mph -999.0 mph 95 % 0 in
07:33 39.2 °F 37.6 °F 23.39 in NW 2.7 mph -999.0 mph 94 % 0 in
07:49 38.8 °F 37.2 °F 23.39 in South 1.7 mph -999.0 mph 94 % 0 in
08:05 38.8 °F 37.0 °F 23.39 in SSW 3.2 mph -999.0 mph 93 % 0 in
08:20 39.2 °F 37.6 °F 23.38 in SW 1.7 mph -999.0 mph 94 % 0 in
08:35 39.6 °F 37.7 °F 23.39 in ENE 1.7 mph -999.0 mph 93 % 0 in
08:50 39.7 °F 37.6 °F 23.39 in South 3.2 mph -999.0 mph 92 % 0 in
09:05 40.3 °F 38.2 °F 23.39 in South 2.2 mph -999.0 mph 92 % 0 in
09:21 41.0 °F 38.9 °F 23.40 in SW 1.7 mph -999.0 mph 92 % 0 in
09:36 41.2 °F 38.8 °F 23.40 in SE 1.7 mph -999.0 mph 91 % 0 in
09:51 41.2 °F 38.8 °F 23.40 in ESE 3.7 mph -999.0 mph 91 % 0 in
10:06 41.5 °F 39.1 °F 23.40 in South 2.2 mph -999.0 mph 91 % 0 in
10:21 41.5 °F 39.1 °F 23.40 in SSW 1.7 mph -999.0 mph 91 % 0 in
10:37 42.1 °F 39.7 °F 23.40 in WNW 1.1 mph -999.0 mph 91 % 0 in
10:52 43.0 °F 40.0 °F 23.40 in West 3.7 mph -999.0 mph 89 % 0 in
11:07 41.9 °F 38.9 °F 23.39 in NW 2.7 mph -999.0 mph 89 % 0 in
11:22 43.0 °F 39.7 °F 23.38 in WNW 2.7 mph -999.0 mph 88 % 0 in
11:37 42.3 °F 39.6 °F 23.37 in South 2.7 mph -999.0 mph 90 % 0 in
11:53 42.3 °F 39.6 °F 23.37 in WNW 2.2 mph -999.0 mph 90 % 0 in
12:08 41.5 °F 38.8 °F 23.36 in SSW 4.7 mph -999.0 mph 90 % 0 in
12:24 41.2 °F 38.5 °F 23.35 in NNW 4.7 mph -999.0 mph 90 % 0 in
12:39 40.8 °F 38.7 °F 23.34 in Calm   -999.0 mph 92 % 0 in
12:54 40.8 °F 38.1 °F 23.33 in South 5.8 mph -999.0 mph 90 % 0 in
13:10 41.0 °F 38.6 °F 23.34 in SSW 4.2 mph -999.0 mph 91 % 0 in
13:25 39.9 °F 37.5 °F 23.33 in SSW 5.3 mph -999.0 mph 91 % 0 in
13:40 40.1 °F 37.7 °F 23.33 in SSE 2.2 mph -999.0 mph 91 % 0 in
13:55 40.1 °F 36.8 °F 23.32 in SSE 3.2 mph -999.0 mph 88 % 0 in
14:11 39.4 °F 36.1 °F 23.32 in South 5.8 mph -999.0 mph 88 % 0 in
14:26 39.0 °F 36.0 °F 23.33 in NNE 3.7 mph -999.0 mph 89 % 0 in
14:41 38.8 °F 36.1 °F 23.33 in NW 2.7 mph -999.0 mph 90 % 0 in
14:56 38.7 °F 36.0 °F 23.33 in ESE 1.1 mph -999.0 mph 90 % 0 in
15:12 38.3 °F 36.2 °F 23.33 in ESE 2.2 mph -999.0 mph 92 % 0 in
15:27 38.1 °F 36.8 °F 23.32 in West 3.2 mph -999.0 mph 95 % 0 in
15:42 37.9 °F 36.9 °F 23.32 in SSW 3.2 mph -999.0 mph 96 % 0 in
15:57 37.8 °F 37.0 °F 23.32 in SSW 1.7 mph -999.0 mph 97 % 0 in
16:12 37.8 °F 37.0 °F 23.32 in NNW 2.2 mph -999.0 mph 97 % 0 in
16:28 37.8 °F 37.0 °F 23.33 in WNW 2.2 mph -999.0 mph 97 % 0 in
16:43 37.6 °F 37.1 °F 23.32 in NNW 4.7 mph -999.0 mph 98 % 0 in
16:58 37.4 °F 36.9 °F 23.32 in WNW 3.2 mph -999.0 mph 98 % 0 in
17:14 37.6 °F 37.1 °F 23.32 in South 2.2 mph -999.0 mph 98 % 0 in
17:29 37.4 °F 36.6 °F 23.33 in East 6.3 mph -999.0 mph 97 % 0 in
17:45 37.4 °F 36.1 °F 23.33 in SSW 1.1 mph -999.0 mph 95 % 0 in
18:00 37.0 °F 35.2 °F 23.34 in SW 2.7 mph -999.0 mph 93 % 0 in
18:15 36.7 °F 34.6 °F 23.34 in SW 6.8 mph -999.0 mph 92 % 0 in
18:31 36.3 °F 34.5 °F 23.35 in WSW 2.2 mph -999.0 mph 93 % 0 in
18:46 36.3 °F 34.5 °F 23.35 in NW 7.8 mph -999.0 mph 93 % 0 in
19:01 36.0 °F 34.4 °F 23.33 in WNW 2.7 mph -999.0 mph 94 % 0 in
19:17 35.6 °F 33.8 °F 23.34 in East 4.2 mph -999.0 mph 93 % 0 in
19:32 35.4 °F 33.6 °F 23.34 in NW 6.3 mph -999.0 mph 93 % 0 in
19:47 35.2 °F 33.4 °F 23.34 in NNE 2.2 mph -999.0 mph 93 % 0 in
20:02 35.4 °F 33.3 °F 23.34 in SSW 3.2 mph -999.0 mph 92 % 0 in
20:17 35.4 °F 33.3 °F 23.33 in West 2.7 mph -999.0 mph 92 % 0 in
20:33 35.4 °F 33.6 °F 23.33 in NW 5.8 mph -999.0 mph 93 % 0 in
20:48 35.4 °F 33.6 °F 23.33 in SW 3.7 mph -999.0 mph 93 % 0 in
21:03 35.2 °F 33.4 °F 23.34 in East 4.2 mph -999.0 mph 93 % 0 in
21:18 35.1 °F 33.3 °F 23.35 in SSE 2.7 mph -999.0 mph 93 % 0 in
21:34 35.1 °F 33.5 °F 23.35 in WSW 6.3 mph -999.0 mph 94 % 0 in
21:50 34.9 °F 33.6 °F 23.35 in NNW 1.7 mph -999.0 mph 95 % 0 in
22:05 34.9 °F 33.1 °F 23.36 in SW 4.7 mph -999.0 mph 93 % 0 in
22:20 34.9 °F 33.1 °F 23.35 in SSW 2.7 mph -999.0 mph 93 % 0 in
22:35 34.7 °F 32.6 °F 23.35 in SSW 1.1 mph -999.0 mph 92 % 0 in
22:50 34.2 °F 32.4 °F 23.35 in North 1.1 mph -999.0 mph 93 % 0 in
23:06 34.0 °F 32.2 °F 23.35 in WNW 2.2 mph -999.0 mph 93 % 0 in
23:21 34.2 °F 32.7 °F 23.35 in SW 4.7 mph -999.0 mph 94 % 0 in
23:36 34.2 °F 32.7 °F 23.35 in NNW 4.2 mph -999.0 mph 94 % 0 in
23:51 34.0 °F 31.9 °F 23.34 in NNW 2.7 mph -999.0 mph 92 % 0 in
Big Bear CA Weather
Compliments of Weather Underground - 1.5 mb